Time;durP1;ratioP1;P1;durP2;ratioP2;P2;SDS_P1;SDS_P2;PMS_P1;PMS_P2;Temp;Humidity;BMP_temperature;BMP_pressure;BME280_temperature;BME280_humidity;BME280_pressure;Samples;Min_cycle;Max_cycle;Signal;HPM_P1;HPM_P2
2022/09/07 00:00:39;;;;;;;51.50;29.52;;;;;;;5.16;71.78;100326.62;1674342;85;21851;-80
2022/09/07 00:03:06;;;;;;;59.08;30.95;;;;;;;5.12;71.49;100317.03;1674226;85;21091;-80
2022/09/07 00:05:33;;;;;;;55.00;29.60;;;;;;;5.13;71.29;100322.70;1674181;85;21180;-80
2022/09/07 00:08:00;;;;;;;56.20;29.90;;;;;;;5.13;71.45;100319.23;1674209;85;21162;-80
2022/09/07 00:10:27;;;;;;;54.42;29.23;;;;;;;5.11;71.21;100316.62;1674226;85;21178;-79
2022/09/07 00:12:54;;;;;;;51.83;27.82;;;;;;;5.09;71.25;100317.03;1674161;85;21160;-79
2022/09/07 00:15:21;;;;;;;49.25;27.00;;;;;;;5.08;71.41;100326.16;1690522;84;21504;-80
2022/09/07 00:17:47;;;;;;;52.23;27.27;;;;;;;5.05;71.32;100317.05;1694043;84;21615;-80
2022/09/07 00:20:16;;;;;;;52.40;27.90;;;;;;;5.02;71.15;100315.30;1694144;84;23049;-80
2022/09/07 00:22:42;;;;;;;45.28;27.27;;;;;;;5.02;71.18;100320.52;1694076;84;21088;-80
2022/09/07 00:25:09;;;;;;;48.63;27.02;;;;;;;4.98;71.18;100314.87;1694092;84;21593;-80
2022/09/07 00:27:36;;;;;;;51.05;27.27;;;;;;;4.96;70.95;100312.67;1668801;84;21087;-80
2022/09/07 00:30:04;;;;;;;50.38;25.85;;;;;;;4.94;70.87;100311.80;1694215;84;21114;-79
2022/09/07 00:32:32;;;;;;;43.55;25.95;;;;;;;4.92;71.11;100313.55;1693846;84;21084;-80
2022/09/07 00:34:59;;;;;;;47.75;24.67;;;;;;;4.88;71.41;100307.47;1693986;84;21652;-79
2022/09/07 00:37:25;;;;;;;52.05;26.37;;;;;;;4.84;71.23;100303.09;1693890;84;21141;-79
2022/09/07 00:39:52;;;;;;;44.83;25.25;;;;;;;4.81;71.07;100303.98;1693922;84;21087;-79
2022/09/07 00:42:20;;;;;;;43.45;25.08;;;;;;;4.78;71.23;100303.97;1694339;84;21135;-79
2022/09/07 00:45:16;;;;;;;50.03;25.88;;;;;;;4.76;71.44;100301.80;1693871;84;21630;-80
2022/09/07 00:48:01;;;;;;;;;;;;;;;4.75;71.71;100301.34;1696688;84;21091;-80
2022/09/07 00:50:46;;;;;;;44.85;25.25;;;;;;;4.72;71.63;100305.25;1694160;84;21165;-80
2022/09/07 00:53:21;;;;;;;47.67;24.67;;;;;;;4.66;71.70;100297.44;1693253;84;21020;-80
2022/09/07 00:55:48;;;;;;;46.28;24.67;;;;;;;4.63;71.87;100301.33;1693784;84;21091;-80
2022/09/07 00:58:15;;;;;;;47.08;25.77;;;;;;;4.61;72.15;100297.86;1694123;84;21083;-80
2022/09/07 01:00:43;;;;;;;48.28;25.23;;;;;;;4.60;73.12;100294.36;1694015;84;21138;-81
2022/09/07 01:03:09;;;;;;;46.13;24.72;;;;;;;4.60;73.51;100298.72;1669854;84;21147;-80
2022/09/07 01:05:41;;;;;;;48.52;25.27;;;;;;;4.59;73.43;100294.36;1694221;84;21479;-81
2022/09/07 01:08:09;;;;;;;48.13;24.27;;;;;;;4.59;73.23;100294.36;1693275;83;21147;-81
2022/09/07 01:10:36;;;;;;;41.68;23.35;;;;;;;4.59;72.83;100291.75;1693938;84;21406;-80
2022/09/07 01:13:04;;;;;;;42.33;22.65;;;;;;;4.59;72.55;100287.84;1694034;84;21172;-80
2022/09/07 01:15:56;;;;;;;44.67;23.80;;;;;;;4.55;71.81;100286.11;1679109;84;21191;-81
2022/09/07 01:18:34;;;;;;;45.15;23.62;;;;;;;4.53;71.58;100293.92;1674050;84;21087;-80
2022/09/07 01:21:33;;;;;;;50.48;23.75;;;;;;;4.49;71.99;100288.28;1674289;85;21084;-80
2022/09/07 01:24:12;;;;;;;46.40;23.12;;;;;;;4.46;72.26;100278.70;1674243;84;22207;-80
2022/09/07 01:27:24;;;;;;;44.88;23.70;;;;;;;4.44;72.53;100275.23;1674256;85;21045;-79
2022/09/07 01:30:19;;;;;;;41.68;22.30;;;;;;;4.41;72.16;100275.22;1674259;84;21264;-80
2022/09/07 01:33:10;;;;;;;39.95;22.60;;;;;;;4.37;72.28;100278.69;1674367;85;21119;-79
2022/09/07 01:36:19;;;;;;;41.50;22.95;;;;;;;4.34;71.90;100270.86;1674213;84;21119;-81
2022/09/07 01:38:55;;;;;;;39.18;21.20;;;;;;;4.33;71.75;100271.72;1674242;85;21096;-81
2022/09/07 01:41:42;;;;;;;38.67;21.68;;;;;;;4.28;71.74;100276.05;1674207;84;21072;-80
2022/09/07 01:44:19;;;;;;;41.92;22.80;;;;;;;4.23;71.97;100269.95;1674386;85;21134;-81
2022/09/07 01:47:08;;;;;;;42.38;23.10;;;;;;;4.19;72.56;100278.63;1674135;85;21538;-80
2022/09/07 01:49:47;;;;;;;39.45;21.93;;;;;;;4.18;73.29;100270.37;1674439;84;21104;-80
2022/09/07 01:52:29;;;;;;;48.28;22.10;;;;;;;4.15;73.12;100267.75;1674069;85;21060;-80
2022/09/07 01:55:18;;;;;;;36.48;21.97;;;;;;;4.13;72.98;100273.39;1674178;85;21071;-79
2022/09/07 01:57:55;;;;;;;39.90;21.23;;;;;;;4.09;72.91;100270.77;1676730;85;21267;-80
2022/09/07 02:00:22;;;;;;;38.33;21.65;;;;;;;4.07;73.06;100270.34;1673837;85;21630;-80
2022/09/07 02:03:14;;;;;;;36.23;20.82;;;;;;;4.03;73.44;100268.13;1674115;85;22072;-80
2022/09/07 02:06:02;;;;;;;36.50;20.25;;;;;;;4.02;73.88;100269.02;1674264;85;21167;-81
2022/09/07 02:08:36;;;;;;;41.05;20.90;;;;;;;4.02;74.28;100265.11;1667250;85;21100;-80
2022/09/07 02:11:07;;;;;;;43.02;21.48;;;;;;;4.04;74.64;100268.58;1674606;84;21292;-80
2022/09/07 02:13:39;;;;;;;38.38;19.82;;;;;;;4.04;74.87;100264.67;1674242;84;21103;-80
2022/09/07 02:16:09;;;;;;;35.15;19.25;;;;;;;4.06;74.84;100265.55;1691257;84;21076;-80
2022/09/07 02:18:45;;;;;;;40.40;19.73;;;;;;;4.11;74.85;100264.70;1694017;84;21049;-80
2022/09/07 02:21:12;;;;;;;33.50;17.90;;;;;;;4.12;74.87;100256.91;1693558;84;20972;-80
2022/09/07 02:23:45;;;;;;;32.73;18.02;;;;;;;4.14;75.10;100262.12;1693895;84;21295;-80
2022/09/07 02:26:16;;;;;;;32.30;17.55;;;;;;;4.17;75.22;100263.41;1693866;84;21067;-80
2022/09/07 02:28:43;;;;;;;28.50;17.50;;;;;;;4.18;74.59;100253.44;1694432;84;21139;-81
2022/09/07 02:31:10;;;;;;;33.50;17.73;;;;;;;4.18;74.26;100254.74;1693854;84;21606;-80
2022/09/07 02:33:37;;;;;;;29.05;17.23;;;;;;;4.20;74.17;100253.00;1694258;84;21131;-81
2022/09/07 02:36:04;;;;;;;30.95;17.15;;;;;;;4.21;74.35;100257.36;1693762;84;21583;-80
2022/09/07 02:38:31;;;;;;;31.97;17.45;;;;;;;4.21;74.42;100248.25;1693904;84;21595;-80
2022/09/07 02:41:00;;;;;;;32.98;15.93;;;;;;;4.22;74.45;100256.47;1693855;84;21601;-80
2022/09/07 02:43:27;;;;;;;26.07;16.00;;;;;;;4.22;73.92;100244.75;1694126;84;21573;-80
2022/09/07 02:46:26;;;;;;;29.48;16.35;;;;;;;4.23;73.54;100243.91;1693719;84;21086;-80
2022/09/07 02:49:07;;;;;;;28.62;15.05;;;;;;;4.23;73.11;100245.20;1692227;84;21935;-81
2022/09/07 02:51:42;;;;;;;28.25;16.10;;;;;;;4.21;72.58;100245.64;1694198;84;21080;-81
2022/09/07 02:54:47;;;;;;;24.52;14.73;;;;;;;4.19;72.42;100244.77;1692652;84;21547;-81
2022/09/07 02:57:43;;;;;;;25.70;14.23;;;;;;;4.16;72.87;100246.92;1694149;84;21075;-81
2022/09/07 03:00:17;;;;;;;27.27;13.88;;;;;;;4.14;73.27;100249.96;1693875;84;21124;-81
2022/09/07 03:03:10;;;;;;;28.35;14.85;;;;;;;4.12;72.86;100242.98;1694249;84;22340;-81
2022/09/07 03:05:45;;;;;;;23.87;13.85;;;;;;;4.08;72.61;100247.33;1693761;84;21021;-81
2022/09/07 03:08:40;;;;;;;22.82;12.55;;;;;;;4.04;72.64;100248.19;1694134;84;21163;-81
2022/09/07 03:11:07;;;;;;;18.05;11.88;;;;;;;4.02;72.42;100242.97;1693457;84;21127;-81
2022/09/07 03:13:34;;;;;;;30.52;13.28;;;;;;;4.00;72.36;100241.21;1693902;84;22364;-81
2022/09/07 03:16:01;;;;;;;24.67;13.43;;;;;;;3.95;72.20;100242.52;1679926;84;21152;-81
2022/09/07 03:18:28;;;;;;;23.25;12.63;;;;;;;3.92;72.26;100246.41;1673999;84;21641;-80
2022/09/07 03:20:55;;;;;;;21.27;12.53;;;;;;;3.88;72.70;100242.92;1674317;85;21108;-81
2022/09/07 03:23:22;;;;;;;26.57;12.60;;;;;;;3.86;72.87;100247.67;1674299;84;21092;-81
2022/09/07 03:25:49;;;;;;;21.85;12.05;;;;;;;3.82;72.61;100242.89;1674128;85;21166;-81
2022/09/07 03:28:16;;;;;;;25.35;12.85;;;;;;;3.81;73.19;100250.69;1674024;85;21814;-82
2022/09/07 03:30:45;;;;;;;22.07;11.50;;;;;;;3.82;75.42;100252.00;1673880;84;21142;-81
2022/09/07 03:33:14;;;;;;;21.40;11.25;;;;;;;3.86;76.27;100248.97;1674475;85;21665;-82
2022/09/07 03:35:43;;;;;;;18.98;10.82;;;;;;;3.87;76.05;100244.22;1674080;84;21096;-81
2022/09/07 03:38:09;;;;;;;17.02;10.93;;;;;;;3.89;76.54;100251.16;1674219;85;21166;-81
2022/09/07 03:40:36;;;;;;;20.82;12.35;;;;;;;3.90;76.27;100246.80;1674284;84;21173;-81
2022/09/07 03:43:03;;;;;;;23.32;11.22;;;;;;;3.92;76.40;100243.80;1674366;85;22190;-81
2022/09/07 03:45:30;;;;;;;22.07;11.08;;;;;;;3.92;75.93;100255.52;1674204;85;21675;-82
2022/09/07 03:47:57;;;;;;;23.05;11.30;;;;;;;3.96;75.71;100251.19;1674098;85;21108;-81
2022/09/07 03:50:24;;;;;;;22.65;10.82;;;;;;;3.99;75.40;100248.16;1674532;85;21203;-81
2022/09/07 03:52:51;;;;;;;19.57;11.18;;;;;;;4.03;75.60;100252.50;1674157;84;21171;-80
2022/09/07 03:55:17;;;;;;;20.37;10.90;;;;;;;4.06;75.13;100251.22;1674340;85;21614;-80
2022/09/07 03:57:44;;;;;;;17.48;11.20;;;;;;;4.11;75.86;100246.48;1674420;85;21089;-81
2022/09/07 04:00:13;;;;;;;21.45;11.12;;;;;;;4.13;76.50;100247.34;1674255;85;21135;-81
2022/09/07 04:02:40;;;;;;;24.82;10.63;;;;;;;4.16;76.85;100243.45;1674687;85;21558;-81
2022/09/07 04:05:08;;;;;;;20.92;10.68;;;;;;;4.21;77.34;100248.25;1674268;85;21272;-81
2022/09/07 04:07:34;;;;;;;22.98;11.38;;;;;;;4.25;77.72;100253.89;1674458;84;21123;-81
2022/09/07 04:10:01;;;;;;;20.90;10.10;;;;;;;4.29;78.17;100255.66;1674265;85;21115;-81
2022/09/07 04:12:28;;;;;;;18.15;9.40;;;;;;;4.32;78.44;100246.55;1674363;84;21140;-81
2022/09/07 04:14:55;;;;;;;21.95;10.13;;;;;;;4.38;78.80;100258.71;1674254;84;21673;-81
2022/09/07 04:17:22;;;;;;;22.87;9.80;;;;;;;4.43;78.98;100255.23;1674190;85;21268;-81
2022/09/07 04:19:49;;;;;;;28.62;11.57;;;;;;;4.52;78.93;100255.69;1674590;85;21167;-82
2022/09/07 04:22:15;;;;;;;27.05;13.10;;;;;;;4.57;79.15;100254.40;1674113;85;21008;-81
2022/09/07 04:24:42;;;;;;;30.50;13.70;;;;;;;4.67;79.50;100265.72;1674415;85;21026;-80
2022/09/07 04:27:08;;;;;;;32.45;11.90;;;;;;;4.73;79.50;100266.59;1674216;85;21072;-81
2022/09/07 04:29:36;;;;;;;26.00;10.88;;;;;;;4.81;79.28;100257.05;1674522;84;21152;-80
2022/09/07 04:32:03;;;;;;;23.85;10.32;;;;;;;4.91;79.28;100262.25;1674211;85;21049;-81
2022/09/07 04:34:30;;;;;;;18.77;9.20;;;;;;;5.03;79.11;100263.58;1674052;85;21057;-80
2022/09/07 04:36:56;;;;;;;16.50;8.68;;;;;;;5.11;79.19;100260.54;1674284;84;21053;-80
2022/09/07 04:39:23;;;;;;;20.75;8.63;;;;;;;5.22;79.14;100265.73;1674197;84;21052;-81
2022/09/07 04:41:49;;;;;;;21.37;9.05;;;;;;;5.33;78.91;100260.49;1674597;85;21279;-81
2022/09/07 04:44:16;;;;;;;18.00;8.00;;;;;;;5.43;78.47;100260.05;1674284;84;21590;-81
2022/09/07 04:46:43;;;;;;;14.43;7.35;;;;;;;5.51;78.21;100263.52;1674438;84;21021;-81
2022/09/07 04:49:10;;;;;;;14.40;7.20;;;;;;;5.59;78.25;100258.70;1674269;84;21071;-81
2022/09/07 04:51:37;;;;;;;21.48;8.83;;;;;;;5.69;77.88;100262.17;1656924;85;21092;-81
2022/09/07 04:54:06;;;;;;;14.85;6.97;;;;;;;5.78;77.61;100262.58;1674127;84;21016;-81
2022/09/07 04:56:33;;;;;;;19.40;7.55;;;;;;;5.90;77.27;100261.66;1674156;85;21005;-81
2022/09/07 04:59:03;;;;;;;15.30;7.00;;;;;;;6.01;76.96;100261.23;1674326;85;21638;-81
2022/09/07 05:01:30;;;;;;;16.17;6.95;;;;;;;6.11;76.64;100258.15;1674259;85;21016;-82
2022/09/07 05:04:00;;;;;;;17.50;7.10;;;;;;;6.24;76.36;100257.66;1674395;85;21523;-81
2022/09/07 05:06:26;;;;;;;13.70;6.83;;;;;;;6.36;75.60;100258.89;1674135;85;21296;-82
2022/09/07 05:08:53;;;;;;;15.68;6.62;;;;;;;6.45;75.05;100259.28;1674025;85;21001;-82
2022/09/07 05:11:22;;;;;;;12.45;6.45;;;;;;;6.56;74.94;100256.62;1674298;84;21028;-82
2022/09/07 05:13:49;;;;;;;19.02;6.97;;;;;;;6.70;74.86;100262.61;1674029;84;21076;-81
2022/09/07 05:16:19;;;;;;;14.38;6.72;;;;;;;6.83;74.41;100250.31;1684038;84;21045;-82
2022/09/07 05:18:50;;;;;;;10.58;6.42;;;;;;;6.95;73.87;100258.06;1693859;84;21128;-81
2022/09/07 05:21:21;;;;;;;16.73;7.10;;;;;;;7.08;72.92;100256.22;1694174;84;21127;-84
2022/09/07 05:23:51;;;;;;;14.60;6.45;;;;;;;7.21;72.29;100256.55;1693855;84;20952;-83
2022/09/07 05:26:18;;;;;;;24.32;6.70;;;;;;;7.33;71.90;100255.98;1693823;84;21127;-83
2022/09/07 05:28:45;;;;;;;10.35;5.95;;;;;;;7.43;71.30;100249.36;1694198;84;21159;-84
2022/09/07 05:31:15;;;;;;;12.00;6.47;;;;;;;7.56;69.75;100247.91;1694072;84;21195;-84
2022/09/07 05:33:50;;;;;;;13.48;6.80;;;;;;;7.71;69.70;100250.36;1694464;84;21608;-83
2022/09/07 05:36:17;;;;;;;17.48;6.40;;;;;;;7.84;69.22;100248.92;1694076;84;25857;-83
2022/09/07 05:38:44;;;;;;;13.55;6.25;;;;;;;7.99;67.38;100252.67;1694036;84;21852;-84
2022/09/07 05:41:14;;;;;;;12.40;5.62;;;;;;;8.12;67.09;100247.70;1693881;84;21067;-82
2022/09/07 05:43:41;;;;;;;11.00;4.85;;;;;;;8.26;65.86;100251.90;1693861;84;21126;-83
2022/09/07 05:46:08;;;;;;;15.95;6.25;;;;;;;8.40;65.06;100252.56;1693846;84;21092;-82
2022/09/07 05:48:35;;;;;;;9.58;5.40;;;;;;;8.53;63.32;100246.74;1693847;84;21150;-83
2022/09/07 05:51:02;;;;;;;8.85;5.03;;;;;;;8.63;62.77;100245.72;1693669;84;21096;-84
2022/09/07 05:53:29;;;;;;;17.30;6.65;;;;;;;8.72;62.45;100247.33;1693826;84;21084;-83
2022/09/07 05:55:59;;;;;;;12.85;5.17;;;;;;;8.82;62.06;100246.28;1694025;84;21793;-82
2022/09/07 05:58:27;;;;;;;9.15;5.00;;;;;;;8.93;61.68;100246.99;1693969;84;21020;-84
2022/09/07 06:01:10;;;;;;;12.15;5.78;;;;;;;9.05;61.36;100242.45;1694083;84;21072;-83
2022/09/07 06:03:38;;;;;;;16.02;6.20;;;;;;;9.16;60.24;100243.11;1693556;84;21121;-85
2022/09/07 06:06:10;;;;;;;12.95;5.40;;;;;;;9.29;60.31;100244.63;1694206;84;21075;-84
2022/09/07 06:08:41;;;;;;;10.23;5.15;;;;;;;9.44;60.13;100253.14;1694080;84;21127;-83
2022/09/07 06:11:13;;;;;;;9.35;5.17;;;;;;;9.59;59.30;100242.80;1694089;84;21822;-83
2022/09/07 06:13:41;;;;;;;11.73;5.40;;;;;;;9.71;57.65;100245.64;1693951;84;21103;-83
2022/09/07 06:16:09;;;;;;;7.65;5.05;;;;;;;9.81;57.76;100245.41;1689030;84;22114;-83
2022/09/07 06:18:42;;;;;;;9.25;5.28;;;;;;;9.94;57.90;100251.77;1720794;83;21476;-84
2022/09/07 06:21:18;;;;;;;16.52;5.37;;;;;;;10.07;57.02;100241.84;1693326;84;21191;-84
2022/09/07 06:23:47;;;;;;;13.30;5.50;;;;;;;10.21;56.54;100242.43;1680845;85;21116;-84
2022/09/07 06:26:15;;;;;;;13.00;5.35;;;;;;;10.33;55.48;100242.19;1680745;85;21076;-84
2022/09/07 06:28:45;;;;;;;16.55;5.00;;;;;;;10.46;55.78;100240.62;1680838;85;23211;-84
2022/09/07 06:31:18;;;;;;;9.18;5.55;;;;;;;10.62;55.39;100245.92;1680839;84;21634;-83
2022/09/07 06:33:46;;;;;;;8.43;5.33;;;;;;;10.78;54.75;100248.62;1680827;85;21851;-84
2022/09/07 06:36:17;;;;;;;13.00;5.17;;;;;;;10.95;53.31;100251.30;1680591;85;21002;-83
2022/09/07 06:38:44;;;;;;;10.75;5.42;;;;;;;11.08;52.83;100251.41;1680824;84;21089;-82
2022/09/07 06:41:13;;;;;;;13.65;5.05;;;;;;;11.20;52.38;100254.19;1680655;85;21080;-84
2022/09/07 06:43:40;;;;;;;7.58;5.12;;;;;;;11.28;51.08;100260.13;1681117;85;21057;-84
2022/09/07 06:46:07;;;;;;;10.23;4.80;;;;;;;11.35;50.18;100266.11;1680701;85;21134;-83
2022/09/07 06:48:33;;;;;;;13.05;6.10;;;;;;;11.38;50.44;100254.18;1680796;85;21091;-83
2022/09/07 06:51:04;;;;;;;11.75;4.30;;;;;;;11.44;50.64;100252.68;1680770;85;21076;-82
2022/09/07 06:53:33;;;;;;;10.10;4.85;;;;;;;11.56;50.60;100253.27;1680791;85;21033;-82
2022/09/07 06:56:00;;;;;;;11.70;5.33;;;;;;;11.69;50.61;100248.08;1680654;85;21017;-84
2022/09/07 06:58:27;;;;;;;12.68;4.60;;;;;;;11.86;50.07;100250.24;1680818;85;21116;-85
2022/09/07 07:00:54;;;;;;;4.30;3.87;;;;;;;11.97;48.61;100257.87;1680866;85;21055;-83
2022/09/07 07:03:22;;;;;;;8.43;4.70;;;;;;;12.01;48.22;100255.11;1680793;84;33113;-83
2022/09/07 07:05:53;;;;;;;9.98;4.75;;;;;;;12.06;48.52;100256.30;1680967;85;21033;-83
2022/09/07 07:08:21;;;;;;;10.32;4.65;;;;;;;12.18;48.23;100250.66;1680704;84;21078;-83
2022/09/07 07:10:47;;;;;;;23.18;7.42;;;;;;;12.33;48.24;100251.13;1680821;85;21817;-84
2022/09/07 07:13:14;;;;;;;6.55;4.55;;;;;;;12.47;47.33;100255.52;1680625;85;21100;-83
2022/09/07 07:15:42;;;;;;;11.10;4.25;;;;;;;12.58;46.51;100256.05;1680923;85;21018;-84
2022/09/07 07:18:10;;;;;;;8.35;3.95;;;;;;;12.66;46.45;100256.27;1680491;85;21025;-84
2022/09/07 07:20:38;;;;;;;6.62;3.50;;;;;;;12.76;45.34;100259.02;1680965;85;21092;-84
2022/09/07 07:23:05;;;;;;;5.20;3.30;;;;;;;12.82;45.87;100253.55;1680901;85;21159;-83
2022/09/07 07:25:35;;;;;;;4.80;3.55;;;;;;;12.94;45.90;100253.14;1680603;84;21025;-82
2022/09/07 07:28:03;;;;;;;10.05;3.58;;;;;;;13.08;44.96;100250.51;1680886;84;21501;-84
2022/09/07 07:30:30;;;;;;;5.12;3.37;;;;;;;13.20;45.00;100248.80;1680710;84;21002;-84
2022/09/07 07:32:57;;;;;;;23.52;7.85;;;;;;;13.32;44.78;100251.05;1680890;85;21025;-83
2022/09/07 07:35:25;;;;;;;9.35;4.60;;;;;;;13.44;43.27;100242.30;1681325;85;21104;-85
2022/09/07 07:37:52;;;;;;;9.45;3.87;;;;;;;13.49;43.90;100240.36;1680809;84;21074;-84
2022/09/07 07:40:19;;;;;;;4.65;3.17;;;;;;;13.58;43.37;100236.05;1680828;85;21072;-84
2022/09/07 07:42:46;;;;;;;5.33;3.30;;;;;;;13.64;43.30;100229.70;1680908;85;21544;-83
2022/09/07 07:45:13;;;;;;;7.67;2.92;;;;;;;13.78;43.62;100230.05;1681030;85;21084;-82
2022/09/07 07:47:40;;;;;;;6.90;3.40;;;;;;;13.96;42.35;100227.19;1680720;84;21110;-84
2022/09/07 07:50:08;;;;;;;3.98;3.00;;;;;;;14.08;42.78;100232.02;1680786;85;20986;-83
2022/09/07 07:52:38;;;;;;;9.70;3.42;;;;;;;14.22;41.60;100231.52;1681007;85;21567;-84
2022/09/07 07:55:06;;;;;;;12.25;3.30;;;;;;;14.25;40.37;100229.20;1680540;85;21144;-83
2022/09/07 07:57:33;;;;;;;4.40;2.90;;;;;;;14.22;40.67;100226.66;1680712;85;21068;-85
2022/09/07 08:00:00;;;;;;;9.18;4.22;;;;;;;14.20;40.80;100219.25;1680745;85;21132;-84
2022/09/07 08:02:27;;;;;;;5.12;2.58;;;;;;;14.27;40.38;100227.34;1680834;85;21017;-84
2022/09/07 08:04:53;;;;;;;2.37;1.60;;;;;;;14.36;40.07;100212.45;1680793;85;21021;-83
2022/09/07 08:07:20;;;;;;;11.73;2.83;;;;;;;14.47;37.75;100210.25;1680750;84;21576;-83
2022/09/07 08:09:47;;;;;;;2.98;1.00;;;;;;;14.56;38.09;100212.09;1680932;85;21131;-82
2022/09/07 08:12:17;;;;;;;6.80;1.22;;;;;;;14.67;37.20;100220.52;1680958;85;21061;-83
2022/09/07 08:14:48;;;;;;;2.27;1.37;;;;;;;14.75;37.17;100210.48;1680723;85;21614;-82
2022/09/07 08:17:15;;;;;;;11.28;3.55;;;;;;;14.76;37.34;100217.52;1678426;85;21025;-83
2022/09/07 08:19:43;;;;;;;12.78;3.15;;;;;;;14.75;36.50;100213.13;1675681;85;21034;-84
2022/09/07 08:22:09;;;;;;;11.60;3.83;;;;;;;14.64;36.56;100213.58;1675512;85;21076;-83
2022/09/07 08:24:36;;;;;;;3.77;1.67;;;;;;;14.58;37.51;100211.60;1646391;85;21623;-82
2022/09/07 08:27:03;;;;;;;5.75;1.90;;;;;;;14.64;37.52;100207.39;1675485;85;21017;-81
2022/09/07 08:29:30;;;;;;;4.87;2.00;;;;;;;14.81;37.33;100204.94;1675984;85;21120;-82
2022/09/07 08:31:57;;;;;;;3.40;1.80;;;;;;;15.05;37.87;100194.24;1675661;85;21022;-84
2022/09/07 08:34:23;;;;;;;4.97;1.90;;;;;;;15.35;36.87;100184.58;1675798;85;21073;-83
2022/09/07 08:36:50;;;;;;;5.45;1.55;;;;;;;15.57;35.91;100178.71;1675870;85;21284;-81
2022/09/07 08:39:17;;;;;;;3.62;1.55;;;;;;;15.72;35.39;100169.68;1675855;85;21054;-83
2022/09/07 08:42:04;;;;;;;2.10;1.90;;;;;;;15.81;35.72;100174.59;1675990;85;21512;-85
2022/09/07 08:44:38;;;;;;;11.12;5.10;;;;;;;15.88;35.35;100180.00;1675697;85;21121;-83
2022/09/07 08:47:40;;;;;;;6.55;2.20;;;;;;;15.89;34.24;100173.77;1676037;85;21053;-80
2022/09/07 08:50:23;;;;;;;7.37;3.22;;;;;;;15.85;34.71;100173.50;1674679;85;21131;-83
2022/09/07 08:53:07;;;;;;;3.12;2.00;;;;;;;15.88;34.62;100177.34;1675754;84;21112;-84
2022/09/07 08:56:03;;;;;;;1.67;1.30;;;;;;;15.87;33.57;100175.64;1675707;85;21058;-84
2022/09/07 08:58:43;;;;;;;4.45;1.80;;;;;;;15.81;34.34;100173.26;1676080;85;21105;-83
2022/09/07 09:01:14;;;;;;;1.42;1.32;;;;;;;15.81;34.36;100170.61;1675913;85;21128;-83
2022/09/07 09:03:41;;;;;;;1.45;1.20;;;;;;;15.87;33.92;100158.39;1675514;85;21171;-82
2022/09/07 09:06:24;;;;;;;2.62;1.30;;;;;;;15.98;34.10;100150.77;1675429;84;21092;-83
2022/09/07 09:09:09;;;;;;;3.65;1.47;;;;;;;16.20;33.78;100151.56;1675309;85;20934;-82
2022/09/07 09:12:14;;;;;;;3.33;1.70;;;;;;;16.37;33.01;100158.72;1675750;85;21136;-84
2022/09/07 09:14:58;;;;;;;2.75;1.57;;;;;;;16.52;32.67;100152.65;1675735;84;21111;-84
2022/09/07 09:17:32;;;;;;;6.92;2.15;;;;;;;16.54;32.50;100156.09;1673424;84;21538;-84
2022/09/07 09:20:31;;;;;;;12.03;4.03;;;;;;;16.48;32.18;100152.42;1653575;85;21569;-85
2022/09/07 09:23:11;;;;;;;6.30;1.95;;;;;;;16.39;32.43;100147.55;1669528;85;21048;-85
2022/09/07 09:25:54;;;;;;;8.58;3.62;;;;;;;16.41;32.72;100154.96;1670251;85;21092;-84
2022/09/07 09:28:21;;;;;;;5.75;2.00;;;;;;;16.42;32.79;100142.09;1669958;85;21065;-83
2022/09/07 09:30:47;;;;;;;4.87;2.92;;;;;;;16.42;31.76;100144.74;1670053;85;21193;-84
2022/09/07 09:33:24;;;;;;;6.50;1.92;;;;;;;16.34;32.45;100132.70;1669838;85;21092;-84
2022/09/07 09:35:57;;;;;;;7.40;1.90;;;;;;;16.39;32.70;100126.30;1670267;85;21100;-84
2022/09/07 09:38:34;;;;;;;5.95;3.87;;;;;;;16.51;31.93;100136.34;1669861;85;21079;-84
2022/09/07 09:41:11;;;;;;;5.78;2.87;;;;;;;16.48;32.26;100135.16;1670137;85;21139;-85
2022/09/07 09:43:54;;;;;;;2.22;2.02;;;;;;;16.41;32.05;100128.40;1669963;85;21822;-83
2022/09/07 09:46:27;;;;;;;5.17;1.82;;;;;;;16.38;32.32;100120.61;1669940;85;21087;-85
2022/09/07 09:49:04;;;;;;;5.92;2.15;;;;;;;16.51;31.82;100133.68;1669212;85;21446;-84
2022/09/07 09:51:33;;;;;;;4.15;2.17;;;;;;;16.57;31.57;100124.06;1654756;85;21555;-84
2022/09/07 09:54:07;;;;;;;9.25;2.50;;;;;;;16.55;31.64;100121.95;1669976;85;21477;-83
2022/09/07 09:56:38;;;;;;;4.47;2.00;;;;;;;16.55;32.38;100115.31;1666478;85;21088;-85
2022/09/07 09:59:20;;;;;;;2.42;1.65;;;;;;;16.60;32.64;100114.61;1669901;85;21095;-85
2022/09/07 10:01:47;;;;;;;2.60;2.40;;;;;;;16.62;31.87;100108.75;1663370;85;21116;-84
2022/09/07 10:04:31;;;;;;;2.72;1.90;;;;;;;16.61;32.18;100111.03;1669892;84;21060;-82
2022/09/07 10:07:23;;;;;;;1.63;1.53;;;;;;;16.63;31.36;100103.84;1670110;84;21084;-84
2022/09/07 10:09:53;;;;;;;2.08;1.80;;;;;;;16.76;32.03;100101.87;1669679;85;21156;-83
2022/09/07 10:12:29;;;;;;;3.17;1.67;;;;;;;16.97;31.01;100100.81;1670000;85;21080;-83
2022/09/07 10:14:55;;;;;;;3.30;2.05;;;;;;;17.00;31.64;100099.33;1670609;85;21139;-85
2022/09/07 10:17:33;;;;;;;5.60;1.75;;;;;;;17.11;31.45;100100.56;1672262;85;21125;-83
2022/09/07 10:20:20;;;;;;;6.28;2.50;;;;;;;17.17;31.50;100102.91;1676995;85;21025;-85
2022/09/07 10:22:57;;;;;;;2.87;2.00;;;;;;;17.18;30.96;100100.18;1677784;85;21244;-84
2022/09/07 10:25:36;;;;;;;2.77;1.95;;;;;;;17.15;30.77;100091.51;1678758;85;21132;-83
2022/09/07 10:28:12;;;;;;;5.78;1.80;;;;;;;17.21;31.36;100087.17;1675858;85;22190;-83
2022/09/07 10:31:06;;;;;;;2.33;1.52;;;;;;;17.40;31.12;100089.70;1675691;85;21164;-84
2022/09/07 10:33:53;;;;;;;3.65;1.77;;;;;;;17.53;30.63;100085.44;1675721;85;21091;-84
2022/09/07 10:36:25;;;;;;;2.12;1.92;;;;;;;17.68;30.63;100078.42;1675556;84;21243;-82
2022/09/07 10:39:02;;;;;;;2.95;1.75;;;;;;;17.93;30.24;100081.09;1675579;85;21603;-84
2022/09/07 10:42:08;;;;;;;2.25;1.70;;;;;;;18.07;29.66;100070.98;1675650;85;21100;-84
2022/09/07 10:45:04;;;;;;;4.50;1.87;;;;;;;18.11;29.58;100068.06;1676020;85;21599;-82
2022/09/07 10:48:06;;;;;;;11.15;3.25;;;;;;;18.07;29.98;100062.55;1675577;85;21622;-84
2022/09/07 10:50:49;;;;;;;7.40;3.47;;;;;;;18.06;29.61;100060.81;1675955;85;21134;-83
2022/09/07 10:53:37;;;;;;;8.85;2.17;;;;;;;17.99;29.86;100068.30;1675424;85;21207;-84
2022/09/07 10:56:15;;;;;;;2.50;1.77;;;;;;;17.90;29.87;100062.14;1675651;85;21512;-83
2022/09/07 10:59:07;;;;;;;3.15;2.22;;;;;;;17.88;29.92;100062.70;1675837;85;21104;-83
2022/09/07 11:01:58;;;;;;;23.67;10.32;;;;;;;18.00;30.30;100059.83;1675109;85;21037;-84
2022/09/07 11:04:39;;;;;;;18.57;11.53;;;;;;;18.13;30.41;100062.17;1675626;85;22285;-84
2022/09/07 11:07:35;;;;;;;6.30;3.60;;;;;;;18.29;30.14;100050.63;1675817;84;21605;-84
2022/09/07 11:10:18;;;;;;;5.00;2.10;;;;;;;18.41;29.78;100060.59;1675739;85;21081;-83
2022/09/07 11:12:44;;;;;;;2.10;1.90;;;;;;;18.42;29.42;100050.78;1650293;85;21060;-83
2022/09/07 11:15:19;;;;;;;3.92;2.47;;;;;;;18.32;28.67;100045.13;1675716;85;21044;-85
2022/09/07 11:18:07;;;;;;;4.75;2.00;;;;;;;18.22;28.26;100043.95;1676983;85;21190;-86
2022/09/07 11:20:39;;;;;;;13.25;2.80;;;;;;;18.18;28.71;100041.46;1680691;84;21005;-83
2022/09/07 11:23:17;;;;;;;5.35;2.10;;;;;;;18.22;28.80;100043.95;1653091;85;21021;-84
2022/09/07 11:25:58;;;;;;;4.97;1.95;;;;;;;18.14;28.60;100038.60;1680832;85;21702;-83
2022/09/07 11:28:46;;;;;;;2.15;2.00;;;;;;;18.06;28.81;100031.53;1681106;85;21009;-82
2022/09/07 11:31:23;;;;;;;4.53;1.70;;;;;;;18.06;28.28;100030.67;1680458;85;21136;-82
2022/09/07 11:34:01;;;;;;;8.60;2.33;;;;;;;17.99;29.42;100038.16;1680191;84;21119;-82
2022/09/07 11:36:32;;;;;;;4.55;2.00;;;;;;;17.94;29.09;100032.23;1680742;84;21088;-85
2022/09/07 11:39:06;;;;;;;1.80;1.70;;;;;;;17.91;28.80;100033.73;1681207;85;21119;-83
2022/09/07 11:41:39;;;;;;;4.50;2.50;;;;;;;17.93;29.15;100019.86;1680954;84;21128;-83
2022/09/07 11:44:14;;;;;;;4.83;2.15;;;;;;;18.02;29.16;100011.33;1652735;85;21493;-84
2022/09/07 11:47:02;;;;;;;4.60;2.67;;;;;;;18.12;29.34;100012.55;1680627;85;21053;-83
2022/09/07 11:49:29;;;;;;;3.75;2.20;;;;;;;18.21;29.55;100009.81;1681008;84;21622;-84